vrijdag 21 september 2018 | Home | Bestenlijsten | Bestenlijsten NL | Calculator eindtijd | Nieuws | Uitslagen | Videos | Wedstrijden | VZA Ranglijsten | Weer |
 
 
Recent nieuws meer nieuws
09-09: Tim Pleijte onderbreekt in 12e Kustloop zegereeks Erwin Harmes
04-09: Is mijn training iets voor jou?
01-09: Parcoursrecord voor Tim Pleijte in Kustloop Vrouwenpolder
28-08: Erwin Harmes wint na zoveelste solorace voor derde keer Halve Westenschouwen
07-08: Verwarring over wedstrijden
28-07: Jullie lopen te snel ( of te langzaam )? Vervolg.
Wedstrijdagenda meer wedstrijden
vr 21-09: Vaart van Vlissingen
za 22-09: Bamisrun Kloosterzande
zo 23-09: 2e Kraaieloop Lewedorp
zo 23-09: 34e Dam tot Damloop Amsterdam
vr 28-09: Pump-up Run 10k Middelburg
za 29-09: Ten Miles Philippine
vr 05-10: 11e Ladiesrun Zoutelande
za 06-10: Clingse Bosloop Kapellebrug
za 06-10: 16e Kustmarathon Zoutelande
zo 07-10: 33e Singelloop Breda
zo 14-10: 35e Marathon Eindhoven
za 20-10: Hulsterloo Loop Nieuw-Namen
za 20-10: 57e Singelloop Middelburg
zo 21-10: 43e Amsterdam Marathon
vr 26-10: 3e Halloween Run Middelburg
Recente uitslagen meer uitslagen
za 15-09: 2e Bosse Pielenloop Vogelwaarde (79)
za 15-09: 15e Tielemanloop Middelharnis
vr 14-09: 23e Stadsloop Goes
za 08-09: 5e d'Ossekoppenloop Ossenisse (133)
za 01-09: 12e Kustloop Vrouwenpolder (486)
wo 29-08: Kreekloop Terneuzen (74)
zo 26-08: Lamsorenloop Lamswaarde (27)
zo 26-08: Hardloop3Daagse Ritthem
za 25-08: 32e Halve Marathon Westenschouwen (399)
vr 24-08: 9e Kapelsedag Loop Kapelle-Biezelinge (103)
za 11-08: 15 van Wolphaartsdijk (111)
di 07-08: 6e Zomerloop Zuidzande (71)
 
Zoek tenminste met 3 tekens van wedstrijd, datum, plaats of atleet
Kreekloop
Terneuzen, woensdag 30 augustus 2017 - Organisatie: Scheldesport
9.6 km
PltsNaam
Tijdkm/umin/km
1  Mark VerhageZaamslag33.22Mse   17.263  3:29
2  Erwin van den BroekeAxel35.20M35   16.302  3:41
3  Sander van DoornTerneuzen35.54Mse   16.045  3:44
4  Erik GoossenTerneuzen36.14M45   15.897  3:46
5  Martijn KoxWestdorpe37.05M35   15.533  3:52
6  Lorenzo d'HontKoewacht38.49Mse   14.839  4:03
7  Leo BrackeAxel39.10M50   14.706  4:05
8  Adriaan WielesTerneuzen39.21M45   14.638  4:06
9  Endy SlockAxel39.25M40   14.613  4:06
10  Ben van VlietTerneuzen39.27M40   14.601  4:07
11  Allan van AltenAxel39.35M40   14.552  4:07
12  Michael den HamerHoek39.43M40   14.503  4:08
13  Stefan van den BroekeAxel39.54Mse   14.436  4:09
14  Evert KuijkTerneuzen40.19M50   14.287  4:12
15  Marlon RoelsTerneuzen40.22M45   14.269  4:12
16  Thomas WulffraatTerneuzen40.39M35   14.170  4:14
17  Erik BollemanAxel41.27M45   13.896  4:19
18  Alwin de ZeeuwTerneuzen41.42M45   13.813  4:21
19  Bas JasperseTerneuzen41.56M45   13.736  4:22
20  Menno den DekkerTerneuzen42.21M45   13.601  4:25
21  Marnix Van den BrandeClinge42.25Mse   13.580  4:25
22  Niek WielandAxel43.57M40   13.106  4:35
23  Harold de MaatTerneuzen44.08M45   13.051  4:36
24  Jochem de DijckerAxel44.21M35   12.988  4:37
25  Ebe BlaauwTerneuzen44.26M60   12.963  4:38
26  Peter van den BergHulst44.30M50   12.944  4:38
27  Berry KnibbelerWestdorpe44.33M55   12.929  4:38
28  Leon van BavinchovenTerneuzen44.59M45   12.805  4:41
29  Bart van JoleTerneuzen45.39M35   12.618  4:45
30  Rudi de CaluweSas van Gent45.43M55   12.599  4:46
31  Astrid VerhageZuiddorpe45.47V35   12.581  4:46
32  Patrick DobbelaarHoek45.48M50   12.576  4:46
33  Martin de JaegerTerneuzen46.03M45   12.508  4:48
34  Jos de KreekVogelwaarde46.04M50   12.504  4:48
35  Fiona ReijersTerneuzen46.17V40   12.445  4:49
36  Josa van der VlietTerneuzen46.18V50   12.441  4:49
37  Inge de BooijGraauw46.21Vse   12.427  4:50
38  Aschwin RoegiersTerneuzen46.27M45   12.400  4:50
39  Corine de JongeTerneuzen46.28Vse   12.396  4:50
40  Natasja BooijWalsoorden46.35V40   12.365  4:51
41  Coen KaijserTerneuzen47.01Mse   12.251  4:54
42  Jan BoonmanAxel47.10M65   12.212  4:55
43  Piet PijpelinkTerneuzen47.16M50   12.186  4:55
44  Marion GoossenTerneuzen47.52V45   12.033  4:59
45  Cor LeunisTerneuzen48.16M55   11.934  5:02
46  Cor de JongeTerneuzen48.40M55   11.836  5:04
47  Wendy van den BroekeAxel49.02V35   11.747  5:06
48  Frans VerwilligenHulst49.18M60   11.684  5:08
49  Emmanuela BrackeAxel49.37V45   11.609  5:10
50  Jack FolkersmaTerneuzen49.57M45   11.532  5:12
51  Nadia BleyenbergNieuw-Namen50.03Vse   11.508  5:13
52  Johan UijtdehaagTerneuzen50.10M35   11.482  5:14
53  Alex van LeuvenSint Jansteen50.26M55   11.421  5:15
54  Edwin RiemensAxel51.11M50   11.254  5:20
55  Leo HoekmaKoewacht52.44M65   10.923  5:30
56  Wienanda KolbeekTerneuzen53.34Vse   10.753  5:35
57  Ilse NieskensBiervliet54.00V50   10.667  5:38
58  Jan-Willem SlabbekoornHoek55.18M50   10.416  5:46
59  Monique AdriaanseTerneuzen55.34V50   10.366  5:47
60  Stefanie van de VisserHoek55.38V35   10.354  5:48
61  Phyllis FranceschiTerneuzen55.54V40   10.304  5:49
62  Ingrid JonesTerneuzen56.22V45   10.219  5:52
63  Marieke van HeckeTerneuzen56.43V35   10.156  5:54
64  Antoine van den BroekTerneuzen57.02M35   10.099  5:56
65  Chantal SchilperoordtZaamslag57.06V40   10.088  5:57
66  Rudy van de VeldeWachtebeke58.17M50   9.883  6:04
67  Gerald MonteyneOosteeklo58.18M50   9.880  6:04
68  Dominique De MeySint-Niklaas59.02V50   9.757  6:09
69  Philip De VroeSleidinge59.08M50   9.741  6:10
Mannen: 50 (72.46%) => M35=7 - M40=5 - M45=12 - M50=11 - M55=5 - M60=2 - M65=2 - Mse=6
Vrouwen: 19 (27.54%) => V35=4 - V40=4 - V45=3 - V50=4 - Vse=4
5.2 km
PltsNaam
Tijdkm/umin/km
1  Sander d'HontKuitaart16.38Mse   18.758  3:12
2  Robert LafertinTerneuzen19.50M35   15.731  3:49
3  Omar HillaertWestdorpe20.22M45   15.319  3:55
4  Paul HaertjensBoekhoute21.45M50   14.345  4:11
5  Ronald VerschurenTerneuzen21.57M40   14.214  4:13
6  Micha TollenaarTerneuzen22.00Mse   14.182  4:14
7  Jos van GrembergheStekene22.08M60   14.096  4:15
8  Bart de ClerckVogelwaarde23.19Mse   13.381  4:29
9  Wim BakkerTerneuzen23.25M65   13.324  4:30
10  Manon WakkerTerneuzen26.48Vse   11.642  5:09
11  Daan DielemanZaamslag26.53M65   11.606  5:10
12  Johan De ZeeuwAxel28.15M55   11.044  5:26
13  Sheila BaarsAxel28.16Vse   11.038  5:26
14  Ilse de ZeeuwTerneuzen28.46V45   10.846  5:32
15  Karin den DekkerTerneuzen29.02V45   10.746  5:35
16  Danielle van der KooiTerneuzen29.03V40   10.740  5:35
17  Carin WillemseTerneuzen29.54V45   10.435  5:45
18  Tally ZamanTerneuzen29.54V50   10.435  5:45
19  Tonny StrijdonkTerneuzen31.12M70   10.000  6:00
20  Danielle XavierTerneuzen31.53V40   9.786  6:08
21  Marjan SuijTerneuzen32.33V50   9.585  6:16
22  Natasja FlorissenTerneuzen34.48V45   8.966  6:42
23  Lidy JonkerTerneuzen37.18V50   8.365  7:10
24  Greta de VijlderSint-Gillis-Waas37.19V70   8.361  7:11
Mannen: 12 (50%) => M35=1 - M40=1 - M45=1 - M50=1 - M55=1 - M60=1 - M65=2 - M70=1 - Mse=3
Vrouwen: 12 (50%) => V40=2 - V45=4 - V50=3 - V70=1 - Vse=2

Overzicht Top3, winnares en aantal deelnemers in eerdere jaren

JaarWinnaarTijd2eTijd 3eTijdWinnaresTijd#
2017Sander d'Hont16:38Robert Lafertin19:50Omar Hillaert20:22Manon Wakker26:4824
2016Sander d'Hont17:04Erwin van de Broeke17:37Ben van Vliet20:37Stefanie van de Visser24:5631
2015Sander d'Hont17:19Gunter D'Hondt17:48Dennis Florussen19:44Fiona Reijers24:2123
2014Gunter D'Hondt17:59Martijn Kox18:52Dennis Florussen19:45Shirley Kerkhove20:3036


Snelheid en tempo zijn berekend op de vermelde afstand. Bij een onjuiste afstand wijken deze uiteraard af!

Fouten melden via info@atletiekzeeland.nl Categorie fout? Mail dan geboortedatum. (geldt alleen voor Zeeuwen)

De server had 0.105 seconden nodig om deze lijst met 93 prestaties samen te stellen.

Terug naar boven

Vorige uitslagen
DatumWedstrijdPlaatsVereniging Hits
29-08-2018 KreekloopTerneuzenScheldesport0
31-08-2016 KreekloopTerneuzenScheldesport382
26-08-2015 KreekloopTerneuzenScheldesport489
27-08-2014 KreekloopTerneuzenScheldesport820
26-08-2009 KreekloopTerneuzenScheldesport1535
27-08-2008 KreekloopTerneuzenScheldesport720
29-08-2007 KreekloopTerneuzenScheldesport1141

 
Recente Zeeuwse prestaties meer prestaties
16-09: Berlin marathon Berlijn (4)
marath Marlon Roels (PR)3.08.07  M45
marath Paola van Gilst (PR)3.09.15  V45
marath Ada Geuze (PR)3.17.39  V35
marath Michel Ridderhof (PR 3.19.10)3.24.00  M45
09-09: Quikrun Roosendaal (7)
09-09: Halve Marathon Oostland Pijnacker (5)
09-09: Flanders Field Marathon Ieper (4)
09-09: M√ľnster marathon (4)
08-09: 43e Run Winschoten (3)
08-09: WK 100 km Sveti Martin na Muri (2)
02-09: 30e Tilburg Ten Miles (30)
01-09: Halve Marathon Evergem (6)
01-09: Memorial Polspoel Vilvoorde (1)
31-08: Track Meeting Utrecht (4)
28-08: 10km van Groot Steenbergen (3)
23-08: 3000m Meeting Rotterdam (3)
18-08: Memorial Jos Verstockt Lier (2)
17-08: 4e Goes on Track (45)
15-08: We All Love Running Zomergem (4)
08-08: Internationale meeting Sint-Niklaas (3)
04-08: Meeting voor Mon Kessel-Lo (2)
03-08: Track Meeting Utrecht (7)
28-07: Memorial Rasschaert Ninove (2)
Recente video(s)
Atletiek Zeeland © 2018